createdAt,value
2022-11-14T00:00:48.544Z,59.83
2022-11-14T00:03:34.565Z,65.97
2022-11-14T00:06:20.271Z,73.18
2022-11-14T00:09:05.699Z,65.40
2022-11-14T00:11:51.269Z,52.08
2022-11-14T00:14:37.371Z,57.38
2022-11-14T00:17:22.510Z,54.13
2022-11-14T00:20:10.906Z,59.78
2022-11-14T00:22:56.780Z,72.13
2022-11-14T00:25:44.260Z,64.65
2022-11-14T00:28:29.792Z,63.10
2022-11-14T00:31:15.290Z,62.65
2022-11-14T00:34:00.791Z,67.63
2022-11-14T00:36:46.080Z,66.13
2022-11-14T00:39:31.588Z,69.57
2022-11-14T00:42:16.885Z,55.42
2022-11-14T00:45:02.475Z,56.97
2022-11-14T00:47:47.888Z,59.50
2022-11-14T00:50:33.339Z,58.60
2022-11-14T00:53:18.994Z,57.83
2022-11-14T00:56:04.907Z,57.08
2022-11-14T00:58:50.322Z,58.38
2022-11-14T01:01:36.034Z,59.40
2022-11-14T01:04:21.221Z,50.33
2022-11-14T01:07:06.769Z,54.13
2022-11-14T01:09:52.058Z,55.92
2022-11-14T01:12:37.501Z,56.38
2022-11-14T01:15:23.107Z,55.83
2022-11-14T01:18:11.479Z,54.50
2022-11-14T01:20:57.117Z,54.53
2022-11-14T01:23:42.255Z,47.10
2022-11-14T01:26:27.634Z,45.70
2022-11-14T01:29:13.091Z,54.08
2022-11-14T01:31:58.373Z,46.05
2022-11-14T01:34:43.928Z,53.05
2022-11-14T01:37:29.359Z,51.55
2022-11-14T01:40:15.031Z,50.78
2022-11-14T01:43:18.453Z,53.55
2022-11-14T01:46:12.650Z,49.78
2022-11-14T01:49:03.594Z,55.20
2022-11-14T01:51:53.971Z,54.88
2022-11-14T01:54:42.873Z,51.85
2022-11-14T01:57:36.285Z,52.25
2022-11-14T02:00:21.766Z,56.85
2022-11-14T02:03:07.323Z,55.35
2022-11-14T02:05:53.220Z,52.65
2022-11-14T02:08:39.793Z,47.88
2022-11-14T02:11:28.706Z,50.15
2022-11-14T02:14:14.030Z,50.22
2022-11-14T02:17:22.627Z,49.00
2022-11-14T02:20:11.409Z,56.88
2022-11-14T02:22:57.103Z,50.95
2022-11-14T02:25:42.180Z,54.75
2022-11-14T02:28:28.987Z,54.45
2022-11-14T02:31:15.636Z,57.05
2022-11-14T02:34:01.345Z,74.68
2022-11-14T02:36:46.467Z,64.28
2022-11-14T02:39:32.058Z,57.72
2022-11-14T02:42:17.428Z,59.75
2022-11-14T02:45:03.382Z,52.58
2022-11-14T02:47:48.524Z,63.35
2022-11-14T02:50:33.946Z,61.30
2022-11-14T02:53:19.498Z,61.90
2022-11-14T02:56:05.225Z,62.20
2022-11-14T02:58:50.367Z,65.90
2022-11-14T03:01:35.628Z,62.40
2022-11-14T03:04:21.151Z,56.80
2022-11-14T03:07:06.566Z,58.88
2022-11-14T03:09:52.022Z,58.45
2022-11-14T03:12:37.978Z,57.30
2022-11-14T03:15:24.115Z,61.17
2022-11-14T03:18:09.709Z,62.30
2022-11-14T03:20:55.182Z,63.00
2022-11-14T03:23:40.597Z,62.13
2022-11-14T03:26:26.332Z,54.15
2022-11-14T03:29:11.783Z,66.38
2022-11-14T03:31:57.209Z,65.03
2022-11-14T03:34:42.922Z,65.43
2022-11-14T03:37:28.020Z,58.80
2022-11-14T03:40:13.565Z,54.47
2022-11-14T03:42:58.925Z,61.88
2022-11-14T03:45:45.151Z,62.45
2022-11-14T03:48:31.064Z,51.88
2022-11-14T03:51:16.894Z,57.78
2022-11-14T03:54:02.439Z,53.28
2022-11-14T03:56:47.738Z,48.53
2022-11-14T03:59:33.216Z,54.67
2022-11-14T04:02:18.667Z,56.03
2022-11-14T04:05:04.336Z,51.58
2022-11-14T04:07:50.267Z,54.42
2022-11-14T04:10:35.436Z,44.72
2022-11-14T04:13:20.962Z,52.58
2022-11-14T04:16:06.647Z,54.88
2022-11-14T04:18:51.806Z,48.05
2022-11-14T04:21:37.312Z,60.88
2022-11-14T04:24:22.850Z,48.50
2022-11-14T04:27:08.303Z,58.75
2022-11-14T04:29:53.718Z,55.50
2022-11-14T04:32:39.394Z,57.58
2022-11-14T04:35:24.917Z,66.82
2022-11-14T04:38:10.685Z,66.45
2022-11-14T04:40:56.176Z,56.63
2022-11-14T04:43:42.979Z,60.65
2022-11-14T04:46:31.001Z,65.20
2022-11-14T04:49:16.492Z,72.68
2022-11-14T04:52:01.939Z,72.32
2022-11-14T04:54:47.374Z,69.80
2022-11-14T04:57:32.926Z,66.28
2022-11-14T05:00:18.709Z,65.82
2022-11-14T05:03:04.125Z,69.93
2022-11-14T05:05:49.666Z,61.78
2022-11-14T05:08:35.061Z,81.07
2022-11-14T05:11:24.184Z,71.80
2022-11-14T05:14:13.489Z,65.97
2022-11-14T05:16:59.466Z,65.28
2022-11-14T05:19:44.760Z,67.43
2022-11-14T05:22:30.176Z,76.40
2022-11-14T05:25:15.603Z,66.85
2022-11-14T05:28:02.050Z,73.57
2022-11-14T05:30:47.348Z,73.80
2022-11-14T05:33:33.169Z,67.53
2022-11-14T05:36:18.998Z,73.75
2022-11-14T05:39:04.223Z,75.43
2022-11-14T05:41:49.873Z,69.38
2022-11-14T05:44:35.379Z,72.55
2022-11-14T05:47:20.858Z,71.82
2022-11-14T05:50:06.864Z,73.47
2022-11-14T05:52:52.251Z,64.50
2022-11-14T05:55:37.631Z,68.47
2022-11-14T05:58:22.980Z,84.43
2022-11-14T06:01:17.490Z,67.97
2022-11-14T06:04:06.349Z,75.85
2022-11-14T06:06:51.955Z,76.72
2022-11-14T06:09:37.471Z,73.97
2022-11-14T06:12:22.862Z,72.63
2022-11-14T06:15:08.615Z,76.80
2022-11-14T06:17:54.276Z,78.43
2022-11-14T06:20:39.686Z,75.60
2022-11-14T06:23:25.240Z,72.35
2022-11-14T06:26:22.873Z,75.60
2022-11-14T06:29:09.688Z,78.70
2022-11-14T06:31:54.923Z,82.40
2022-11-14T06:34:40.463Z,74.20
2022-11-14T06:37:28.397Z,78.32
2022-11-14T06:40:15.682Z,94.05
2022-11-14T06:43:01.442Z,79.55
2022-11-14T06:45:47.043Z,77.93
2022-11-14T06:48:33.314Z,76.78
2022-11-14T06:51:19.239Z,73.55
2022-11-14T06:54:04.468Z,67.70
2022-11-14T06:56:50.083Z,69.13
2022-11-14T06:59:35.385Z,85.03
2022-11-14T07:02:22.190Z,70.93
2022-11-14T07:05:07.670Z,75.97
2022-11-14T07:07:52.992Z,77.32
2022-11-14T07:10:38.564Z,88.45
2022-11-14T07:13:24.002Z,76.38
2022-11-14T07:16:09.439Z,72.88
2022-11-14T07:18:55.325Z,69.95
2022-11-14T07:21:40.879Z,77.80
2022-11-14T07:24:26.212Z,76.03
2022-11-14T07:27:11.579Z,68.20
2022-11-14T07:29:57.210Z,71.90
2022-11-14T07:32:42.748Z,77.43
2022-11-14T07:35:27.975Z,75.18
2022-11-14T07:38:13.438Z,85.03
2022-11-14T07:41:07.859Z,80.70
2022-11-14T07:43:53.399Z,65.18
2022-11-14T07:46:38.865Z,76.03
2022-11-14T07:49:24.391Z,77.35
2022-11-14T07:52:09.645Z,70.97
2022-11-14T07:54:55.146Z,68.97
2022-11-14T07:57:43.944Z,74.13
2022-11-14T08:00:31.916Z,66.63
2022-11-14T08:03:17.353Z,74.55
2022-11-14T08:06:05.037Z,67.30
2022-11-14T08:08:50.211Z,65.72
2022-11-14T08:11:47.695Z,65.32
2022-11-14T08:14:33.627Z,61.67
2022-11-14T08:17:23.740Z,66.40
2022-11-14T08:20:10.133Z,66.85
2022-11-14T08:23:01.815Z,64.28
2022-11-14T08:25:46.854Z,54.57
2022-11-14T08:28:32.895Z,51.35
2022-11-14T08:31:18.280Z,59.35
2022-11-14T08:34:03.712Z,56.67
2022-11-14T08:36:49.401Z,59.00
2022-11-14T08:39:34.409Z,49.42
2022-11-14T08:42:19.971Z,53.47
2022-11-14T08:45:06.068Z,52.28
2022-11-14T08:47:52.487Z,47.13
2022-11-14T08:50:37.901Z,49.58
2022-11-14T08:53:23.354Z,44.95
2022-11-14T08:56:10.688Z,41.22
2022-11-14T08:58:55.975Z,39.00
2022-11-14T09:01:41.303Z,40.20
2022-11-14T09:04:26.792Z,44.70
2022-11-14T09:07:12.266Z,41.95
2022-11-14T09:09:57.674Z,38.42
2022-11-14T09:12:43.180Z,37.88
2022-11-14T09:15:29.275Z,38.78
2022-11-14T09:18:15.308Z,35.53
2022-11-14T09:21:06.086Z,37.30
2022-11-14T09:23:51.647Z,37.30
2022-11-14T09:26:36.774Z,30.38
2022-11-14T09:29:22.211Z,30.50
2022-11-14T09:32:07.790Z,26.23
2022-11-14T09:34:53.435Z,32.17
2022-11-14T09:37:39.293Z,31.45
2022-11-14T09:40:24.703Z,31.00
2022-11-14T09:43:28.948Z,28.38
2022-11-14T09:46:27.978Z,28.92
2022-11-14T09:49:37.635Z,27.67
2022-11-14T09:52:38.315Z,29.02
2022-11-14T09:55:35.176Z,25.13
2022-11-14T09:58:22.252Z,26.63
2022-11-14T10:01:30.748Z,28.63
2022-11-14T10:04:19.355Z,26.50
2022-11-14T10:07:27.304Z,31.90
2022-11-14T10:10:38.491Z,25.80
2022-11-14T10:14:09.416Z,25.05
2022-11-14T10:17:12.552Z,27.95
2022-11-14T10:20:10.303Z,23.13
2022-11-14T10:23:19.938Z,24.92
2022-11-14T10:26:12.172Z,25.52
2022-11-14T10:29:03.424Z,24.67
2022-11-14T10:32:14.461Z,23.98
2022-11-14T10:35:20.444Z,23.85
2022-11-14T10:38:05.881Z,24.42
2022-11-14T10:40:54.210Z,19.23
2022-11-14T10:43:46.771Z,24.20
2022-11-14T10:46:51.108Z,24.63
2022-11-14T10:49:37.545Z,24.23
2022-11-14T10:52:34.923Z,24.45
2022-11-14T10:55:37.141Z,25.15
2022-11-14T10:58:26.600Z,22.42
2022-11-14T11:01:38.632Z,21.60
2022-11-14T11:04:32.621Z,23.40
2022-11-14T11:07:42.892Z,20.40
2022-11-14T11:10:46.941Z,22.02
2022-11-14T11:13:37.153Z,23.85
2022-11-14T11:16:24.644Z,22.42
2022-11-14T11:19:24.704Z,23.88
2022-11-14T11:22:36.634Z,27.42
2022-11-14T11:25:27.844Z,25.38
2022-11-14T11:28:21.793Z,19.47
2022-11-14T11:31:09.532Z,23.50
2022-11-14T11:33:55.740Z,22.17
2022-11-14T11:36:50.089Z,20.08
2022-11-14T11:39:41.572Z,18.58
2022-11-14T11:45:54.489Z,25.02
2022-11-14T11:48:40.547Z,15.20
2022-11-14T11:51:27.435Z,13.60
2022-11-14T11:54:20.081Z,16.98
2022-11-14T11:57:18.543Z,13.95
2022-11-14T12:00:21.750Z,13.98
2022-11-14T12:03:13.404Z,13.93
2022-11-14T12:06:20.291Z,15.75
2022-11-14T12:10:03.225Z,18.38
2022-11-14T12:12:44.892Z,15.55
2022-11-14T12:16:12.916Z,16.80
2022-11-14T12:19:17.710Z,17.02
2022-11-14T12:22:03.791Z,13.20
2022-11-14T12:25:13.860Z,15.52
2022-11-14T12:28:17.288Z,17.65
2022-11-14T12:31:05.894Z,13.88
2022-11-14T12:34:00.855Z,18.85
2022-11-14T12:36:46.852Z,14.20
2022-11-14T12:39:32.953Z,15.88
2022-11-14T12:42:21.047Z,15.07
2022-11-14T12:45:41.214Z,15.07
2022-11-14T12:48:26.428Z,14.27
2022-11-14T12:51:30.003Z,13.82
2022-11-14T12:54:44.817Z,14.18
2022-11-14T12:57:49.789Z,13.82
2022-11-14T13:01:01.430Z,16.88
2022-11-14T13:04:16.448Z,13.27
2022-11-14T13:07:19.907Z,11.45
2022-11-14T13:10:30.350Z,12.35
2022-11-14T13:13:35.581Z,11.95
2022-11-14T13:16:48.324Z,11.00
2022-11-14T13:20:02.967Z,12.18
2022-11-14T13:22:48.057Z,13.70
2022-11-14T13:25:33.378Z,15.70
2022-11-14T13:28:37.674Z,12.90
2022-11-14T13:31:25.581Z,11.48
2022-11-14T13:34:40.400Z,10.32
2022-11-14T13:37:56.644Z,11.35
2022-11-14T13:41:00.700Z,10.98
2022-11-14T13:44:16.122Z,12.80
2022-11-14T13:47:26.880Z,8.70
2022-11-14T13:50:17.071Z,11.95
2022-11-14T13:53:10.480Z,15.80
2022-11-14T13:56:06.974Z,10.63
2022-11-14T13:59:01.217Z,11.60
2022-11-14T14:02:10.779Z,10.55
2022-11-14T14:05:24.875Z,9.75
2022-11-14T14:08:49.462Z,12.02
2022-11-14T14:12:17.611Z,11.68
2022-11-14T14:15:14.140Z,10.63
2022-11-14T14:18:18.884Z,12.15
2022-11-14T14:21:09.853Z,9.85
2022-11-14T14:24:04.589Z,9.77
2022-11-14T14:27:08.887Z,10.07
2022-11-14T14:30:10.485Z,9.00
2022-11-14T14:33:07.999Z,11.10
2022-11-14T14:35:54.527Z,9.77
2022-11-14T14:38:39.851Z,11.35
2022-11-14T14:41:30.675Z,10.98
2022-11-14T14:44:39.887Z,11.77
2022-11-14T14:47:38.225Z,10.98
2022-11-14T14:50:50.744Z,15.55
2022-11-14T14:53:36.571Z,11.43
2022-11-14T14:56:27.852Z,11.93
2022-11-14T14:59:23.093Z,12.93
2022-11-14T15:02:19.938Z,12.50
2022-11-14T15:05:06.019Z,12.10
2022-11-14T15:07:55.279Z,15.30
2022-11-14T15:10:41.377Z,16.58
2022-11-14T15:13:29.314Z,13.00
2022-11-14T15:16:15.214Z,13.20
2022-11-14T15:19:01.357Z,13.10
2022-11-14T15:21:57.222Z,16.38
2022-11-14T15:24:42.548Z,15.10
2022-11-14T15:27:27.987Z,16.70
2022-11-14T15:30:40.066Z,14.60
2022-11-14T15:33:31.208Z,14.60
2022-11-14T15:36:17.835Z,13.77
2022-11-14T15:39:27.951Z,16.77
2022-11-14T15:42:29.460Z,15.32
2022-11-14T15:45:26.456Z,15.30
2022-11-14T15:48:18.460Z,15.35
2022-11-14T15:51:03.975Z,16.30
2022-11-14T15:53:49.998Z,13.55
2022-11-14T15:56:35.321Z,16.42
2022-11-14T15:59:20.808Z,14.93
2022-11-14T16:02:30.859Z,13.50
2022-11-14T16:05:16.988Z,15.40
2022-11-14T16:08:02.210Z,14.18
2022-11-14T16:10:47.735Z,15.57
2022-11-14T16:13:33.515Z,17.25
2022-11-14T16:16:19.081Z,17.48
2022-11-14T16:19:05.795Z,20.27
2022-11-14T16:21:51.025Z,15.43
2022-11-14T16:24:36.311Z,18.50
2022-11-14T16:27:21.933Z,20.58
2022-11-14T16:30:08.443Z,24.00
2022-11-14T16:32:54.135Z,18.48
2022-11-14T16:35:39.358Z,25.05
2022-11-14T16:38:24.753Z,20.55
2022-11-14T16:41:14.255Z,17.98
2022-11-14T16:43:59.876Z,19.10
2022-11-14T16:46:45.470Z,19.63
2022-11-14T16:49:30.616Z,17.30
2022-11-14T16:52:17.053Z,19.70
2022-11-14T16:55:02.389Z,18.38
2022-11-14T16:57:48.934Z,16.63
2022-11-14T17:00:34.112Z,20.33
2022-11-14T17:03:19.767Z,19.48
2022-11-14T17:06:09.906Z,19.00
2022-11-14T17:08:59.471Z,17.92
2022-11-14T17:11:44.827Z,18.42
2022-11-14T17:14:30.381Z,18.65
2022-11-14T17:17:15.577Z,16.48
2022-11-14T17:20:01.011Z,16.20
2022-11-14T17:22:46.285Z,16.65
2022-11-14T17:25:31.837Z,18.77
2022-11-14T17:28:17.358Z,16.33
2022-11-14T17:31:08.174Z,18.27
2022-11-14T17:33:55.364Z,19.80
2022-11-14T17:36:40.748Z,18.20
2022-11-14T17:39:26.279Z,15.95
2022-11-14T17:42:11.483Z,19.40
2022-11-14T17:45:00.789Z,15.07
2022-11-14T17:47:46.255Z,21.42
2022-11-14T17:50:36.256Z,20.10
2022-11-14T17:53:22.878Z,16.55
2022-11-14T17:56:13.902Z,18.33
2022-11-14T17:58:59.259Z,17.65
2022-11-14T18:01:45.988Z,22.70
2022-11-14T18:04:31.796Z,19.23
2022-11-14T18:07:17.232Z,22.63
2022-11-14T18:10:02.653Z,18.48
2022-11-14T18:12:48.050Z,17.90
2022-11-14T18:15:33.715Z,21.20
2022-11-14T18:18:20.212Z,23.45
2022-11-14T18:21:09.233Z,19.98
2022-11-14T18:23:56.849Z,21.55
2022-11-14T18:26:42.232Z,20.30
2022-11-14T18:29:28.488Z,17.98
2022-11-14T18:32:13.519Z,18.63
2022-11-14T18:34:58.932Z,19.15
2022-11-14T18:37:44.428Z,22.42
2022-11-14T18:40:29.960Z,20.08
2022-11-14T18:43:16.620Z,17.50
2022-11-14T18:46:09.257Z,16.00
2022-11-14T18:48:57.180Z,18.20
2022-11-14T18:51:42.600Z,20.05
2022-11-14T18:54:28.076Z,17.42
2022-11-14T18:57:13.410Z,17.30
2022-11-14T18:59:58.816Z,17.67
2022-11-14T19:02:48.898Z,22.77
2022-11-14T19:05:38.810Z,21.35
2022-11-14T19:08:24.263Z,18.88
2022-11-14T19:11:30.668Z,19.77
2022-11-14T19:14:16.339Z,26.33
2022-11-14T19:17:02.556Z,23.98
2022-11-14T19:19:49.463Z,25.35
2022-11-14T19:22:34.881Z,24.25
2022-11-14T19:25:20.246Z,20.58
2022-11-14T19:28:05.615Z,16.20
2022-11-14T19:30:51.112Z,19.85
2022-11-14T19:33:40.551Z,18.17
2022-11-14T19:36:58.138Z,20.67
2022-11-14T19:39:32.808Z,21.35
2022-11-14T19:42:18.739Z,18.55
2022-11-14T19:45:04.333Z,23.00
2022-11-14T19:47:49.444Z,18.48
2022-11-14T19:50:34.834Z,19.42
2022-11-14T19:53:20.437Z,20.92
2022-11-14T19:56:08.762Z,19.60
2022-11-14T19:58:56.165Z,18.80
2022-11-14T20:01:44.216Z,22.70
2022-11-14T20:04:33.209Z,19.80
2022-11-14T20:07:20.976Z,20.88
2022-11-14T20:10:07.719Z,17.95
2022-11-14T20:12:52.841Z,18.05
2022-11-14T20:15:38.226Z,24.90
2022-11-14T20:18:23.558Z,24.48
2022-11-14T20:21:12.782Z,16.55
2022-11-14T20:23:58.564Z,19.52
2022-11-14T20:26:43.798Z,17.77
2022-11-14T20:29:30.568Z,15.60
2022-11-14T20:32:16.108Z,15.85
2022-11-14T20:35:01.621Z,19.30
2022-11-14T20:37:47.539Z,20.58
2022-11-14T20:40:33.884Z,19.33
2022-11-14T20:43:19.005Z,17.17
2022-11-14T20:46:06.035Z,15.00
2022-11-14T20:48:51.504Z,16.98
2022-11-14T20:51:36.847Z,17.52
2022-11-14T20:54:22.224Z,19.20
2022-11-14T20:57:07.745Z,17.38
2022-11-14T20:59:53.242Z,20.30
2022-11-14T21:02:38.713Z,15.23
2022-11-14T21:05:24.031Z,15.88
2022-11-14T21:08:09.458Z,17.70
2022-11-14T21:11:03.715Z,18.50
2022-11-14T21:13:58.496Z,16.48
2022-11-14T21:16:43.999Z,16.40
2022-11-14T21:19:29.521Z,17.70
2022-11-14T21:22:15.284Z,18.58
2022-11-14T21:25:01.779Z,16.48
2022-11-14T21:27:46.985Z,23.08
2022-11-14T21:30:32.975Z,14.68
2022-11-14T21:33:18.461Z,18.10
2022-11-14T21:36:38.036Z,19.17
2022-11-14T21:39:17.496Z,16.15
2022-11-14T21:42:02.983Z,15.60
2022-11-14T21:44:48.407Z,13.52
2022-11-14T21:47:34.586Z,14.65
2022-11-14T21:50:19.788Z,15.15
2022-11-14T21:53:15.659Z,13.88
2022-11-14T21:56:28.987Z,16.00
2022-11-14T21:59:18.622Z,16.42
2022-11-14T22:02:22.661Z,15.15
2022-11-14T22:05:08.289Z,13.82
2022-11-14T22:07:53.647Z,15.13
2022-11-14T22:10:39.251Z,12.15
2022-11-14T22:13:24.719Z,12.27
2022-11-14T22:16:11.442Z,10.57
2022-11-14T22:19:01.880Z,10.65
2022-11-14T22:21:50.603Z,11.02
2022-11-14T22:24:36.065Z,18.10
2022-11-14T22:27:21.572Z,10.15
2022-11-14T22:30:07.616Z,13.43
2022-11-14T22:32:52.930Z,11.15
2022-11-14T22:35:38.374Z,9.32
2022-11-14T22:38:23.743Z,13.88
2022-11-14T22:41:17.971Z,12.35
2022-11-14T22:44:03.396Z,11.57
2022-11-14T22:46:49.018Z,13.40
2022-11-14T22:49:34.441Z,12.00
2022-11-14T22:52:19.867Z,13.50
2022-11-14T22:55:05.791Z,10.45
2022-11-14T22:57:50.899Z,13.27
2022-11-14T23:00:36.331Z,11.57
2022-11-14T23:03:22.039Z,13.05
2022-11-14T23:06:08.974Z,11.63
2022-11-14T23:08:55.110Z,9.60
2022-11-14T23:11:40.575Z,13.02
2022-11-14T23:14:25.998Z,13.77
2022-11-14T23:17:11.595Z,12.20
2022-11-14T23:19:56.784Z,13.52
2022-11-14T23:22:42.364Z,12.98
2022-11-14T23:25:27.788Z,11.25
2022-11-14T23:28:13.250Z,13.55
2022-11-14T23:30:59.964Z,13.98
2022-11-14T23:33:50.204Z,11.23
2022-11-14T23:36:35.612Z,11.68
2022-11-14T23:39:21.048Z,9.40
2022-11-14T23:42:06.448Z,14.10
2022-11-14T23:44:51.952Z,14.18
2022-11-14T23:47:37.296Z,12.45
2022-11-14T23:50:22.719Z,11.70
2022-11-14T23:53:08.686Z,13.57
2022-11-14T23:55:59.462Z,11.38
2022-11-14T23:58:44.960Z,13.55
